sensor_id;sensor_type;location;lat;lon;timestamp;P1;durP1;ratioP1;P2;durP2;ratioP2
75375;SDS011;63958;52.004;5.908;2022-12-29T00:02:17;3.15;;;2.50;;
75375;SDS011;63958;52.004;5.908;2022-12-29T00:04:49;3.58;;;2.33;;
75375;SDS011;63958;52.004;5.908;2022-12-29T00:07:18;3.10;;;2.03;;
75375;SDS011;63958;52.004;5.908;2022-12-29T00:09:47;2.60;;;2.30;;
75375;SDS011;63958;52.004;5.908;2022-12-29T00:12:16;3.47;;;2.60;;
75375;SDS011;63958;52.004;5.908;2022-12-29T00:14:45;2.75;;;2.00;;
75375;SDS011;63958;52.004;5.908;2022-12-29T00:17:29;2.70;;;2.08;;
75375;SDS011;63958;52.004;5.908;2022-12-29T00:20:00;2.08;;;1.70;;
75375;SDS011;63958;52.004;5.908;2022-12-29T00:22:42;2.38;;;1.83;;
75375;SDS011;63958;52.004;5.908;2022-12-29T00:25:23;2.85;;;1.85;;
75375;SDS011;63958;52.004;5.908;2022-12-29T00:28:06;2.75;;;1.88;;
75375;SDS011;63958;52.004;5.908;2022-12-29T00:31:00;2.08;;;1.50;;
75375;SDS011;63958;52.004;5.908;2022-12-29T00:33:42;2.22;;;1.70;;
75375;SDS011;63958;52.004;5.908;2022-12-29T00:36:26;2.63;;;1.80;;
75375;SDS011;63958;52.004;5.908;2022-12-29T00:39:00;2.83;;;1.75;;
75375;SDS011;63958;52.004;5.908;2022-12-29T00:41:46;2.42;;;1.90;;
75375;SDS011;63958;52.004;5.908;2022-12-29T00:44:29;2.67;;;2.13;;
75375;SDS011;63958;52.004;5.908;2022-12-29T00:46:58;2.65;;;1.80;;
75375;SDS011;63958;52.004;5.908;2022-12-29T00:49:31;2.00;;;1.73;;
75375;SDS011;63958;52.004;5.908;2022-12-29T00:52:02;2.10;;;1.60;;
75375;SDS011;63958;52.004;5.908;2022-12-29T00:54:33;3.92;;;2.10;;
75375;SDS011;63958;52.004;5.908;2022-12-29T00:57:04;2.83;;;2.03;;
75375;SDS011;63958;52.004;5.908;2022-12-29T00:59:34;3.35;;;2.10;;
75375;SDS011;63958;52.004;5.908;2022-12-29T01:02:04;3.15;;;1.90;;
75375;SDS011;63958;52.004;5.908;2022-12-29T01:04:33;2.20;;;1.60;;
75375;SDS011;63958;52.004;5.908;2022-12-29T01:07:05;1.80;;;1.42;;
75375;SDS011;63958;52.004;5.908;2022-12-29T01:09:36;2.35;;;1.80;;
75375;SDS011;63958;52.004;5.908;2022-12-29T01:12:18;2.83;;;2.03;;
75375;SDS011;63958;52.004;5.908;2022-12-29T01:15:07;1.73;;;1.40;;
75375;SDS011;63958;52.004;5.908;2022-12-29T01:17:37;1.88;;;1.52;;
75375;SDS011;63958;52.004;5.908;2022-12-29T01:20:07;2.05;;;1.58;;
75375;SDS011;63958;52.004;5.908;2022-12-29T01:22:39;2.08;;;1.30;;
75375;SDS011;63958;52.004;5.908;2022-12-29T01:25:09;1.67;;;1.25;;
75375;SDS011;63958;52.004;5.908;2022-12-29T01:27:38;1.83;;;1.25;;
75375;SDS011;63958;52.004;5.908;2022-12-29T01:30:07;2.00;;;1.30;;
75375;SDS011;63958;52.004;5.908;2022-12-29T01:32:37;2.63;;;1.42;;
75375;SDS011;63958;52.004;5.908;2022-12-29T01:35:06;1.38;;;1.10;;
75375;SDS011;63958;52.004;5.908;2022-12-29T01:37:41;1.80;;;1.30;;
75375;SDS011;63958;52.004;5.908;2022-12-29T01:40:11;1.65;;;1.20;;
75375;SDS011;63958;52.004;5.908;2022-12-29T01:42:40;1.95;;;1.50;;
75375;SDS011;63958;52.004;5.908;2022-12-29T01:45:09;1.65;;;1.23;;
75375;SDS011;63958;52.004;5.908;2022-12-29T01:47:40;1.35;;;0.93;;
75375;SDS011;63958;52.004;5.908;2022-12-29T01:50:12;2.53;;;1.10;;
75375;SDS011;63958;52.004;5.908;2022-12-29T01:52:49;1.35;;;1.00;;
75375;SDS011;63958;52.004;5.908;2022-12-29T01:55:22;1.25;;;1.15;;
75375;SDS011;63958;52.004;5.908;2022-12-29T01:57:52;1.88;;;1.10;;
75375;SDS011;63958;52.004;5.908;2022-12-29T02:00:24;1.25;;;1.15;;
75375;SDS011;63958;52.004;5.908;2022-12-29T02:02:53;2.42;;;1.63;;
75375;SDS011;63958;52.004;5.908;2022-12-29T02:05:24;3.85;;;1.40;;
75375;SDS011;63958;52.004;5.908;2022-12-29T02:07:58;1.67;;;1.38;;
75375;SDS011;63958;52.004;5.908;2022-12-29T02:10:29;1.48;;;1.30;;
75375;SDS011;63958;52.004;5.908;2022-12-29T02:13:01;1.42;;;1.30;;
75375;SDS011;63958;52.004;5.908;2022-12-29T02:15:34;3.00;;;1.30;;
75375;SDS011;63958;52.004;5.908;2022-12-29T02:18:14;2.05;;;1.60;;
75375;SDS011;63958;52.004;5.908;2022-12-29T02:21:12;3.85;;;1.60;;
75375;SDS011;63958;52.004;5.908;2022-12-29T02:27:26;4.20;;;1.70;;
75375;SDS011;63958;52.004;5.908;2022-12-29T02:30:12;1.55;;;1.25;;
75375;SDS011;63958;52.004;5.908;2022-12-29T02:32:51;1.80;;;1.42;;
75375;SDS011;63958;52.004;5.908;2022-12-29T02:35:29;1.30;;;1.10;;
75375;SDS011;63958;52.004;5.908;2022-12-29T02:38:07;1.20;;;1.00;;
75375;SDS011;63958;52.004;5.908;2022-12-29T02:40:49;1.10;;;1.00;;
75375;SDS011;63958;52.004;5.908;2022-12-29T02:43:23;2.13;;;1.33;;
75375;SDS011;63958;52.004;5.908;2022-12-29T02:45:55;1.48;;;1.10;;
75375;SDS011;63958;52.004;5.908;2022-12-29T02:48:30;1.17;;;1.05;;
75375;SDS011;63958;52.004;5.908;2022-12-29T02:51:07;1.50;;;1.08;;
75375;SDS011;63958;52.004;5.908;2022-12-29T02:53:43;2.47;;;1.00;;
75375;SDS011;63958;52.004;5.908;2022-12-29T02:56:25;1.75;;;1.10;;
75375;SDS011;63958;52.004;5.908;2022-12-29T02:58:54;1.45;;;1.00;;
75375;SDS011;63958;52.004;5.908;2022-12-29T03:01:26;1.08;;;0.70;;
75375;SDS011;63958;52.004;5.908;2022-12-29T03:04:20;0.88;;;0.88;;
75375;SDS011;63958;52.004;5.908;2022-12-29T03:07:01;1.33;;;0.93;;
75375;SDS011;63958;52.004;5.908;2022-12-29T03:09:41;1.55;;;0.95;;
75375;SDS011;63958;52.004;5.908;2022-12-29T03:12:24;1.35;;;0.90;;
75375;SDS011;63958;52.004;5.908;2022-12-29T03:15:10;1.42;;;0.73;;
75375;SDS011;63958;52.004;5.908;2022-12-29T03:18:01;1.23;;;0.80;;
75375;SDS011;63958;52.004;5.908;2022-12-29T03:20:38;1.70;;;1.10;;
75375;SDS011;63958;52.004;5.908;2022-12-29T03:23:11;1.88;;;1.10;;
75375;SDS011;63958;52.004;5.908;2022-12-29T03:25:40;1.40;;;0.90;;
75375;SDS011;63958;52.004;5.908;2022-12-29T03:28:18;1.67;;;0.98;;
75375;SDS011;63958;52.004;5.908;2022-12-29T03:30:51;1.38;;;0.90;;
75375;SDS011;63958;52.004;5.908;2022-12-29T03:33:21;2.38;;;1.27;;
75375;SDS011;63958;52.004;5.908;2022-12-29T03:35:57;2.83;;;1.08;;
75375;SDS011;63958;52.004;5.908;2022-12-29T03:38:30;1.00;;;0.90;;
75375;SDS011;63958;52.004;5.908;2022-12-29T03:41:04;2.10;;;1.00;;
75375;SDS011;63958;52.004;5.908;2022-12-29T03:43:36;2.85;;;1.60;;
75375;SDS011;63958;52.004;5.908;2022-12-29T03:46:05;3.38;;;1.30;;
75375;SDS011;63958;52.004;5.908;2022-12-29T03:48:35;1.10;;;1.00;;
75375;SDS011;63958;52.004;5.908;2022-12-29T03:51:06;2.47;;;1.30;;
75375;SDS011;63958;52.004;5.908;2022-12-29T03:53:35;1.50;;;0.95;;
75375;SDS011;63958;52.004;5.908;2022-12-29T03:56:05;2.15;;;1.00;;
75375;SDS011;63958;52.004;5.908;2022-12-29T03:58:34;2.47;;;1.10;;
75375;SDS011;63958;52.004;5.908;2022-12-29T04:01:08;2.15;;;1.10;;
75375;SDS011;63958;52.004;5.908;2022-12-29T04:03:38;1.85;;;1.13;;
75375;SDS011;63958;52.004;5.908;2022-12-29T04:06:10;4.28;;;1.42;;
75375;SDS011;63958;52.004;5.908;2022-12-29T04:08:45;2.88;;;1.10;;
75375;SDS011;63958;52.004;5.908;2022-12-29T04:11:14;1.40;;;0.90;;
75375;SDS011;63958;52.004;5.908;2022-12-29T04:13:43;2.17;;;1.20;;
75375;SDS011;63958;52.004;5.908;2022-12-29T04:16:16;2.15;;;0.90;;
75375;SDS011;63958;52.004;5.908;2022-12-29T04:18:45;3.97;;;1.10;;
75375;SDS011;63958;52.004;5.908;2022-12-29T04:21:16;2.33;;;1.30;;
75375;SDS011;63958;52.004;5.908;2022-12-29T04:23:47;2.60;;;1.15;;
75375;SDS011;63958;52.004;5.908;2022-12-29T04:26:16;1.75;;;1.00;;
75375;SDS011;63958;52.004;5.908;2022-12-29T04:29:08;1.77;;;0.80;;
75375;SDS011;63958;52.004;5.908;2022-12-29T04:31:54;1.33;;;0.90;;
75375;SDS011;63958;52.004;5.908;2022-12-29T04:34:23;0.85;;;0.82;;
75375;SDS011;63958;52.004;5.908;2022-12-29T04:36:55;2.67;;;1.10;;
75375;SDS011;63958;52.004;5.908;2022-12-29T04:39:24;2.65;;;1.10;;
75375;SDS011;63958;52.004;5.908;2022-12-29T04:41:53;2.75;;;0.80;;
75375;SDS011;63958;52.004;5.908;2022-12-29T04:44:22;2.05;;;1.13;;
75375;SDS011;63958;52.004;5.908;2022-12-29T04:47:12;4.93;;;1.55;;
75375;SDS011;63958;52.004;5.908;2022-12-29T04:49:45;2.78;;;1.13;;
75375;SDS011;63958;52.004;5.908;2022-12-29T04:52:35;3.22;;;1.20;;
75375;SDS011;63958;52.004;5.908;2022-12-29T04:55:08;3.08;;;1.10;;
75375;SDS011;63958;52.004;5.908;2022-12-29T04:57:37;2.83;;;1.20;;
75375;SDS011;63958;52.004;5.908;2022-12-29T05:00:07;5.10;;;1.25;;
75375;SDS011;63958;52.004;5.908;2022-12-29T05:02:37;2.20;;;1.05;;
75375;SDS011;63958;52.004;5.908;2022-12-29T05:05:07;1.85;;;1.05;;
75375;SDS011;63958;52.004;5.908;2022-12-29T05:07:43;3.35;;;1.00;;
75375;SDS011;63958;52.004;5.908;2022-12-29T05:10:12;3.42;;;1.52;;
75375;SDS011;63958;52.004;5.908;2022-12-29T05:12:41;2.45;;;1.25;;
75375;SDS011;63958;52.004;5.908;2022-12-29T05:15:12;2.78;;;1.60;;
75375;SDS011;63958;52.004;5.908;2022-12-29T05:17:42;2.08;;;1.00;;
75375;SDS011;63958;52.004;5.908;2022-12-29T05:20:11;1.65;;;0.80;;
75375;SDS011;63958;52.004;5.908;2022-12-29T05:22:43;3.22;;;1.00;;
75375;SDS011;63958;52.004;5.908;2022-12-29T05:25:13;4.40;;;1.20;;
75375;SDS011;63958;52.004;5.908;2022-12-29T05:27:55;3.67;;;1.13;;
75375;SDS011;63958;52.004;5.908;2022-12-29T05:30:38;2.55;;;1.17;;
75375;SDS011;63958;52.004;5.908;2022-12-29T05:33:07;1.35;;;0.80;;
75375;SDS011;63958;52.004;5.908;2022-12-29T05:35:37;2.65;;;0.90;;
75375;SDS011;63958;52.004;5.908;2022-12-29T05:38:09;1.70;;;0.85;;
75375;SDS011;63958;52.004;5.908;2022-12-29T05:40:38;1.87;;;0.83;;
75375;SDS011;63958;52.004;5.908;2022-12-29T05:43:19;1.30;;;0.93;;
75375;SDS011;63958;52.004;5.908;2022-12-29T05:46:14;8.65;;;2.00;;
75375;SDS011;63958;52.004;5.908;2022-12-29T05:48:56;2.33;;;1.08;;
75375;SDS011;63958;52.004;5.908;2022-12-29T05:51:34;2.47;;;1.10;;
75375;SDS011;63958;52.004;5.908;2022-12-29T05:54:06;3.17;;;1.38;;
75375;SDS011;63958;52.004;5.908;2022-12-29T05:56:35;4.22;;;1.00;;
75375;SDS011;63958;52.004;5.908;2022-12-29T05:59:03;2.30;;;0.90;;
75375;SDS011;63958;52.004;5.908;2022-12-29T06:01:33;2.70;;;1.10;;
75375;SDS011;63958;52.004;5.908;2022-12-29T06:04:02;1.90;;;1.20;;
75375;SDS011;63958;52.004;5.908;2022-12-29T06:06:31;2.72;;;1.30;;
75375;SDS011;63958;52.004;5.908;2022-12-29T06:09:00;2.55;;;1.20;;
75375;SDS011;63958;52.004;5.908;2022-12-29T06:11:33;2.85;;;1.23;;
75375;SDS011;63958;52.004;5.908;2022-12-29T06:14:02;1.77;;;0.80;;
75375;SDS011;63958;52.004;5.908;2022-12-29T06:16:32;2.58;;;1.02;;
75375;SDS011;63958;52.004;5.908;2022-12-29T06:19:04;1.58;;;1.02;;
75375;SDS011;63958;52.004;5.908;2022-12-29T06:21:33;3.90;;;1.30;;
75375;SDS011;63958;52.004;5.908;2022-12-29T06:24:03;5.93;;;1.30;;
75375;SDS011;63958;52.004;5.908;2022-12-29T06:26:36;3.10;;;1.57;;
75375;SDS011;63958;52.004;5.908;2022-12-29T06:29:05;3.17;;;1.17;;
75375;SDS011;63958;52.004;5.908;2022-12-29T06:31:35;8.55;;;2.33;;
75375;SDS011;63958;52.004;5.908;2022-12-29T06:34:04;3.92;;;1.40;;
75375;SDS011;63958;52.004;5.908;2022-12-29T06:36:33;4.47;;;1.65;;
75375;SDS011;63958;52.004;5.908;2022-12-29T06:39:02;5.22;;;1.25;;
75375;SDS011;63958;52.004;5.908;2022-12-29T06:41:31;3.95;;;1.48;;
75375;SDS011;63958;52.004;5.908;2022-12-29T06:44:22;5.55;;;1.35;;
75375;SDS011;63958;52.004;5.908;2022-12-29T06:46:56;4.30;;;1.25;;
75375;SDS011;63958;52.004;5.908;2022-12-29T06:49:25;4.70;;;1.25;;
75375;SDS011;63958;52.004;5.908;2022-12-29T06:51:54;3.58;;;1.20;;
75375;SDS011;63958;52.004;5.908;2022-12-29T06:54:23;10.32;;;2.53;;
75375;SDS011;63958;52.004;5.908;2022-12-29T06:56:52;5.70;;;1.70;;
75375;SDS011;63958;52.004;5.908;2022-12-29T06:59:24;3.08;;;1.02;;
75375;SDS011;63958;52.004;5.908;2022-12-29T07:01:54;3.90;;;1.63;;
75375;SDS011;63958;52.004;5.908;2022-12-29T07:04:23;1.70;;;0.93;;
75375;SDS011;63958;52.004;5.908;2022-12-29T07:06:52;3.63;;;1.10;;
75375;SDS011;63958;52.004;5.908;2022-12-29T07:09:21;3.55;;;1.25;;
75375;SDS011;63958;52.004;5.908;2022-12-29T07:11:50;5.53;;;1.63;;
75375;SDS011;63958;52.004;5.908;2022-12-29T07:14:19;5.20;;;1.40;;
75375;SDS011;63958;52.004;5.908;2022-12-29T07:16:50;5.13;;;1.30;;
75375;SDS011;63958;52.004;5.908;2022-12-29T07:19:19;4.47;;;2.07;;
75375;SDS011;63958;52.004;5.908;2022-12-29T07:21:48;5.07;;;1.42;;
75375;SDS011;63958;52.004;5.908;2022-12-29T07:24:17;1.77;;;1.10;;
75375;SDS011;63958;52.004;5.908;2022-12-29T07:26:46;4.13;;;1.40;;
75375;SDS011;63958;52.004;5.908;2022-12-29T07:29:15;3.92;;;1.30;;
75375;SDS011;63958;52.004;5.908;2022-12-29T07:31:44;4.68;;;1.85;;
75375;SDS011;63958;52.004;5.908;2022-12-29T07:34:15;2.22;;;1.00;;
75375;SDS011;63958;52.004;5.908;2022-12-29T07:36:44;4.37;;;1.80;;
75375;SDS011;63958;52.004;5.908;2022-12-29T07:39:13;2.67;;;1.00;;
75375;SDS011;63958;52.004;5.908;2022-12-29T07:41:42;3.20;;;1.30;;
75375;SDS011;63958;52.004;5.908;2022-12-29T07:44:16;4.97;;;1.83;;
75375;SDS011;63958;52.004;5.908;2022-12-29T07:47:03;4.13;;;1.17;;
75375;SDS011;63958;52.004;5.908;2022-12-29T07:49:37;5.20;;;1.20;;
75375;SDS011;63958;52.004;5.908;2022-12-29T07:52:06;3.55;;;1.40;;
75375;SDS011;63958;52.004;5.908;2022-12-29T07:54:35;6.68;;;1.60;;
75375;SDS011;63958;52.004;5.908;2022-12-29T07:57:04;3.97;;;1.58;;
75375;SDS011;63958;52.004;5.908;2022-12-29T07:59:34;1.92;;;1.00;;
75375;SDS011;63958;52.004;5.908;2022-12-29T08:02:03;4.60;;;1.60;;
75375;SDS011;63958;52.004;5.908;2022-12-29T08:04:31;6.20;;;1.60;;
75375;SDS011;63958;52.004;5.908;2022-12-29T08:07:03;5.68;;;1.60;;
75375;SDS011;63958;52.004;5.908;2022-12-29T08:09:32;5.03;;;1.50;;
75375;SDS011;63958;52.004;5.908;2022-12-29T08:12:01;5.15;;;1.77;;
75375;SDS011;63958;52.004;5.908;2022-12-29T08:14:30;2.03;;;0.98;;
75375;SDS011;63958;52.004;5.908;2022-12-29T08:16:59;3.47;;;1.70;;
75375;SDS011;63958;52.004;5.908;2022-12-29T08:19:28;3.13;;;1.30;;
75375;SDS011;63958;52.004;5.908;2022-12-29T08:21:56;2.47;;;1.10;;
75375;SDS011;63958;52.004;5.908;2022-12-29T08:24:28;2.50;;;1.13;;
75375;SDS011;63958;52.004;5.908;2022-12-29T08:26:57;4.00;;;1.30;;
75375;SDS011;63958;52.004;5.908;2022-12-29T08:29:26;4.68;;;1.25;;
75375;SDS011;63958;52.004;5.908;2022-12-29T08:31:55;7.65;;;1.70;;
75375;SDS011;63958;52.004;5.908;2022-12-29T08:34:23;7.53;;;2.08;;
75375;SDS011;63958;52.004;5.908;2022-12-29T08:36:52;7.40;;;1.55;;
75375;SDS011;63958;52.004;5.908;2022-12-29T08:39:21;6.43;;;1.55;;
75375;SDS011;63958;52.004;5.908;2022-12-29T08:41:53;6.10;;;1.50;;
75375;SDS011;63958;52.004;5.908;2022-12-29T08:44:22;3.30;;;1.00;;
75375;SDS011;63958;52.004;5.908;2022-12-29T08:46:51;4.57;;;1.70;;
75375;SDS011;63958;52.004;5.908;2022-12-29T08:49:20;6.68;;;1.95;;
75375;SDS011;63958;52.004;5.908;2022-12-29T08:51:49;3.97;;;1.33;;
75375;SDS011;63958;52.004;5.908;2022-12-29T08:54:18;3.58;;;1.23;;
75375;SDS011;63958;52.004;5.908;2022-12-29T08:56:48;4.18;;;1.30;;
75375;SDS011;63958;52.004;5.908;2022-12-29T08:59:20;5.10;;;1.70;;
75375;SDS011;63958;52.004;5.908;2022-12-29T09:01:50;7.97;;;1.73;;
75375;SDS011;63958;52.004;5.908;2022-12-29T09:04:18;6.30;;;1.50;;
75375;SDS011;63958;52.004;5.908;2022-12-29T09:06:49;5.45;;;1.40;;
75375;SDS011;63958;52.004;5.908;2022-12-29T09:09:18;5.70;;;1.38;;
75375;SDS011;63958;52.004;5.908;2022-12-29T09:11:47;7.43;;;2.80;;
75375;SDS011;63958;52.004;5.908;2022-12-29T09:14:16;3.53;;;1.25;;
75375;SDS011;63958;52.004;5.908;2022-12-29T09:16:47;4.57;;;1.70;;
75375;SDS011;63958;52.004;5.908;2022-12-29T09:19:31;3.90;;;1.55;;
75375;SDS011;63958;52.004;5.908;2022-12-29T09:22:00;6.05;;;1.60;;
75375;SDS011;63958;52.004;5.908;2022-12-29T09:24:29;4.68;;;1.67;;
75375;SDS011;63958;52.004;5.908;2022-12-29T09:26:58;5.05;;;1.42;;
75375;SDS011;63958;52.004;5.908;2022-12-29T09:29:27;5.32;;;1.90;;
75375;SDS011;63958;52.004;5.908;2022-12-29T09:31:59;5.40;;;1.55;;
75375;SDS011;63958;52.004;5.908;2022-12-29T09:34:28;5.30;;;2.25;;
75375;SDS011;63958;52.004;5.908;2022-12-29T09:36:58;3.00;;;1.08;;
75375;SDS011;63958;52.004;5.908;2022-12-29T09:39:27;4.40;;;1.60;;
75375;SDS011;63958;52.004;5.908;2022-12-29T09:41:58;10.93;;;1.98;;
75375;SDS011;63958;52.004;5.908;2022-12-29T09:44:37;6.80;;;1.77;;
75375;SDS011;63958;52.004;5.908;2022-12-29T09:47:20;9.02;;;4.78;;
75375;SDS011;63958;52.004;5.908;2022-12-29T09:49:52;7.82;;;2.30;;
75375;SDS011;63958;52.004;5.908;2022-12-29T09:52:25;6.22;;;2.05;;
75375;SDS011;63958;52.004;5.908;2022-12-29T09:55:00;6.10;;;1.85;;
75375;SDS011;63958;52.004;5.908;2022-12-29T09:57:33;7.32;;;2.53;;
75375;SDS011;63958;52.004;5.908;2022-12-29T10:00:05;6.03;;;1.40;;
75375;SDS011;63958;52.004;5.908;2022-12-29T10:02:46;5.78;;;1.30;;
75375;SDS011;63958;52.004;5.908;2022-12-29T10:08:16;5.97;;;1.83;;
75375;SDS011;63958;52.004;5.908;2022-12-29T10:10:54;5.53;;;1.48;;
75375;SDS011;63958;52.004;5.908;2022-12-29T10:13:30;3.70;;;1.55;;
75375;SDS011;63958;52.004;5.908;2022-12-29T10:16:09;2.72;;;1.38;;
75375;SDS011;63958;52.004;5.908;2022-12-29T10:18:59;5.65;;;1.60;;
75375;SDS011;63958;52.004;5.908;2022-12-29T10:21:46;8.65;;;1.50;;
75375;SDS011;63958;52.004;5.908;2022-12-29T10:24:28;8.45;;;1.90;;
75375;SDS011;63958;52.004;5.908;2022-12-29T10:26:59;6.20;;;1.90;;
75375;SDS011;63958;52.004;5.908;2022-12-29T10:29:29;4.15;;;1.65;;
75375;SDS011;63958;52.004;5.908;2022-12-29T10:32:04;6.55;;;1.85;;
75375;SDS011;63958;52.004;5.908;2022-12-29T10:34:41;5.40;;;1.73;;
75375;SDS011;63958;52.004;5.908;2022-12-29T10:37:14;4.78;;;1.75;;
75375;SDS011;63958;52.004;5.908;2022-12-29T10:39:52;4.50;;;1.55;;
75375;SDS011;63958;52.004;5.908;2022-12-29T10:42:25;5.10;;;1.80;;
75375;SDS011;63958;52.004;5.908;2022-12-29T10:44:55;3.63;;;1.20;;
75375;SDS011;63958;52.004;5.908;2022-12-29T10:47:26;3.00;;;1.42;;
75375;SDS011;63958;52.004;5.908;2022-12-29T10:52:29;5.45;;;1.77;;
75375;SDS011;63958;52.004;5.908;2022-12-29T10:55:02;5.90;;;1.57;;
75375;SDS011;63958;52.004;5.908;2022-12-29T10:57:34;5.07;;;1.50;;
75375;SDS011;63958;52.004;5.908;2022-12-29T11:00:10;7.38;;;1.88;;
75375;SDS011;63958;52.004;5.908;2022-12-29T11:05:44;5.82;;;1.90;;
75375;SDS011;63958;52.004;5.908;2022-12-29T11:08:18;6.03;;;1.90;;
75375;SDS011;63958;52.004;5.908;2022-12-29T11:13:26;4.53;;;1.70;;
75375;SDS011;63958;52.004;5.908;2022-12-29T11:15:57;6.63;;;1.90;;
75375;SDS011;63958;52.004;5.908;2022-12-29T11:18:31;7.50;;;2.45;;
75375;SDS011;63958;52.004;5.908;2022-12-29T11:21:06;4.90;;;1.55;;
75375;SDS011;63958;52.004;5.908;2022-12-29T11:23:54;8.52;;;2.22;;
75375;SDS011;63958;52.004;5.908;2022-12-29T11:26:26;5.63;;;2.42;;
75375;SDS011;63958;52.004;5.908;2022-12-29T11:31:45;6.07;;;2.70;;
75375;SDS011;63958;52.004;5.908;2022-12-29T11:34:20;7.53;;;2.10;;
75375;SDS011;63958;52.004;5.908;2022-12-29T11:36:54;8.43;;;2.70;;
75375;SDS011;63958;52.004;5.908;2022-12-29T11:39:36;7.30;;;1.98;;
75375;SDS011;63958;52.004;5.908;2022-12-29T11:42:12;7.65;;;2.90;;
75375;SDS011;63958;52.004;5.908;2022-12-29T11:44:44;8.32;;;3.13;;
75375;SDS011;63958;52.004;5.908;2022-12-29T11:47:22;12.23;;;2.85;;
75375;SDS011;63958;52.004;5.908;2022-12-29T11:49:55;8.80;;;2.60;;
75375;SDS011;63958;52.004;5.908;2022-12-29T11:52:30;9.55;;;3.60;;
75375;SDS011;63958;52.004;5.908;2022-12-29T11:55:02;8.07;;;2.75;;
75375;SDS011;63958;52.004;5.908;2022-12-29T11:57:33;7.97;;;2.20;;
75375;SDS011;63958;52.004;5.908;2022-12-29T12:00:05;9.02;;;2.65;;
75375;SDS011;63958;52.004;5.908;2022-12-29T12:02:54;9.90;;;2.87;;
75375;SDS011;63958;52.004;5.908;2022-12-29T12:05:28;10.30;;;3.28;;
75375;SDS011;63958;52.004;5.908;2022-12-29T12:08:12;8.48;;;3.13;;
75375;SDS011;63958;52.004;5.908;2022-12-29T12:10:48;8.95;;;3.13;;
75375;SDS011;63958;52.004;5.908;2022-12-29T12:13:23;7.78;;;2.92;;
75375;SDS011;63958;52.004;5.908;2022-12-29T12:15:57;7.95;;;2.88;;
75375;SDS011;63958;52.004;5.908;2022-12-29T12:18:32;8.77;;;3.75;;
75375;SDS011;63958;52.004;5.908;2022-12-29T12:21:08;5.75;;;2.55;;
75375;SDS011;63958;52.004;5.908;2022-12-29T12:26:54;12.15;;;3.55;;
75375;SDS011;63958;52.004;5.908;2022-12-29T12:29:32;10.13;;;3.83;;
75375;SDS011;63958;52.004;5.908;2022-12-29T12:32:11;10.05;;;3.08;;
75375;SDS011;63958;52.004;5.908;2022-12-29T12:34:44;8.35;;;3.25;;
75375;SDS011;63958;52.004;5.908;2022-12-29T12:37:18;10.00;;;3.40;;
75375;SDS011;63958;52.004;5.908;2022-12-29T12:40:20;7.80;;;2.70;;
75375;SDS011;63958;52.004;5.908;2022-12-29T12:43:18;9.02;;;2.78;;
75375;SDS011;63958;52.004;5.908;2022-12-29T12:46:00;7.40;;;2.60;;
75375;SDS011;63958;52.004;5.908;2022-12-29T12:48:51;11.35;;;4.70;;
75375;SDS011;63958;52.004;5.908;2022-12-29T12:51:33;13.32;;;3.50;;
75375;SDS011;63958;52.004;5.908;2022-12-29T12:54:12;9.18;;;2.97;;
75375;SDS011;63958;52.004;5.908;2022-12-29T12:56:56;10.90;;;2.93;;
75375;SDS011;63958;52.004;5.908;2022-12-29T12:59:37;9.90;;;3.72;;
75375;SDS011;63958;52.004;5.908;2022-12-29T13:02:22;10.20;;;3.35;;
75375;SDS011;63958;52.004;5.908;2022-12-29T13:05:17;6.70;;;2.78;;
75375;SDS011;63958;52.004;5.908;2022-12-29T13:08:08;6.70;;;2.53;;
75375;SDS011;63958;52.004;5.908;2022-12-29T13:10:50;6.88;;;2.92;;
75375;SDS011;63958;52.004;5.908;2022-12-29T13:13:42;6.43;;;2.65;;
75375;SDS011;63958;52.004;5.908;2022-12-29T13:16:31;7.47;;;2.42;;
75375;SDS011;63958;52.004;5.908;2022-12-29T13:19:09;6.85;;;2.47;;
75375;SDS011;63958;52.004;5.908;2022-12-29T13:21:47;9.90;;;2.85;;
75375;SDS011;63958;52.004;5.908;2022-12-29T13:24:28;10.00;;;3.47;;
75375;SDS011;63958;52.004;5.908;2022-12-29T13:27:04;7.50;;;2.10;;
75375;SDS011;63958;52.004;5.908;2022-12-29T13:29:46;8.60;;;2.75;;
75375;SDS011;63958;52.004;5.908;2022-12-29T13:32:25;7.32;;;2.67;;
75375;SDS011;63958;52.004;5.908;2022-12-29T13:35:07;7.43;;;3.08;;
75375;SDS011;63958;52.004;5.908;2022-12-29T13:37:46;8.43;;;4.10;;
75375;SDS011;63958;52.004;5.908;2022-12-29T13:40:21;9.88;;;2.97;;
75375;SDS011;63958;52.004;5.908;2022-12-29T13:42:52;7.20;;;2.15;;
75375;SDS011;63958;52.004;5.908;2022-12-29T13:45:26;10.68;;;3.40;;
75375;SDS011;63958;52.004;5.908;2022-12-29T13:48:00;8.52;;;2.80;;
75375;SDS011;63958;52.004;5.908;2022-12-29T13:50:35;9.45;;;3.22;;
75375;SDS011;63958;52.004;5.908;2022-12-29T13:53:10;5.38;;;2.20;;
75375;SDS011;63958;52.004;5.908;2022-12-29T13:55:45;7.55;;;2.60;;
75375;SDS011;63958;52.004;5.908;2022-12-29T13:58:26;8.68;;;2.25;;
75375;SDS011;63958;52.004;5.908;2022-12-29T14:01:07;7.28;;;2.15;;
75375;SDS011;63958;52.004;5.908;2022-12-29T14:03:43;5.63;;;1.88;;
75375;SDS011;63958;52.004;5.908;2022-12-29T14:06:16;9.50;;;2.28;;
75375;SDS011;63958;52.004;5.908;2022-12-29T14:08:49;4.95;;;1.90;;
75375;SDS011;63958;52.004;5.908;2022-12-29T14:11:23;5.32;;;1.80;;
75375;SDS011;63958;52.004;5.908;2022-12-29T14:13:57;6.93;;;3.10;;
75375;SDS011;63958;52.004;5.908;2022-12-29T14:16:31;11.07;;;3.17;;
75375;SDS011;63958;52.004;5.908;2022-12-29T14:19:06;5.05;;;2.00;;
75375;SDS011;63958;52.004;5.908;2022-12-29T14:21:41;7.97;;;2.83;;
75375;SDS011;63958;52.004;5.908;2022-12-29T14:24:32;5.30;;;2.45;;
75375;SDS011;63958;52.004;5.908;2022-12-29T14:30:13;4.65;;;2.08;;
75375;SDS011;63958;52.004;5.908;2022-12-29T14:33:17;2.33;;;1.20;;
75375;SDS011;63958;52.004;5.908;2022-12-29T14:35:48;1.98;;;1.35;;
75375;SDS011;63958;52.004;5.908;2022-12-29T14:38:19;2.42;;;1.38;;
75375;SDS011;63958;52.004;5.908;2022-12-29T14:43:54;3.40;;;1.23;;
75375;SDS011;63958;52.004;5.908;2022-12-29T14:46:40;3.60;;;1.70;;
75375;SDS011;63958;52.004;5.908;2022-12-29T14:49:18;4.45;;;2.30;;
75375;SDS011;63958;52.004;5.908;2022-12-29T14:51:50;6.05;;;2.67;;
75375;SDS011;63958;52.004;5.908;2022-12-29T14:57:18;3.75;;;1.50;;
75375;SDS011;63958;52.004;5.908;2022-12-29T14:59:52;3.58;;;1.40;;
75375;SDS011;63958;52.004;5.908;2022-12-29T15:02:24;1.92;;;1.45;;
75375;SDS011;63958;52.004;5.908;2022-12-29T15:05:02;2.60;;;1.50;;
75375;SDS011;63958;52.004;5.908;2022-12-29T15:07:32;2.95;;;1.48;;
75375;SDS011;63958;52.004;5.908;2022-12-29T15:10:04;3.85;;;1.55;;
75375;SDS011;63958;52.004;5.908;2022-12-29T15:12:37;3.00;;;1.20;;
75375;SDS011;63958;52.004;5.908;2022-12-29T15:15:17;5.93;;;1.65;;
75375;SDS011;63958;52.004;5.908;2022-12-29T15:17:48;5.82;;;2.20;;
75375;SDS011;63958;52.004;5.908;2022-12-29T15:20:23;4.20;;;1.50;;
75375;SDS011;63958;52.004;5.908;2022-12-29T15:22:54;3.72;;;1.70;;
75375;SDS011;63958;52.004;5.908;2022-12-29T15:25:25;3.33;;;1.58;;
75375;SDS011;63958;52.004;5.908;2022-12-29T15:27:56;2.53;;;1.42;;
75375;SDS011;63958;52.004;5.908;2022-12-29T15:30:28;4.68;;;1.63;;
75375;SDS011;63958;52.004;5.908;2022-12-29T15:32:57;5.10;;;1.95;;
75375;SDS011;63958;52.004;5.908;2022-12-29T15:35:32;4.32;;;1.80;;
75375;SDS011;63958;52.004;5.908;2022-12-29T15:38:12;7.45;;;1.90;;
75375;SDS011;63958;52.004;5.908;2022-12-29T15:40:44;4.05;;;1.40;;
75375;SDS011;63958;52.004;5.908;2022-12-29T15:43:17;5.80;;;2.67;;
75375;SDS011;63958;52.004;5.908;2022-12-29T15:45:57;7.53;;;2.08;;
75375;SDS011;63958;52.004;5.908;2022-12-29T15:48:29;3.58;;;1.50;;
75375;SDS011;63958;52.004;5.908;2022-12-29T15:51:02;5.05;;;2.03;;
75375;SDS011;63958;52.004;5.908;2022-12-29T15:53:31;4.28;;;2.00;;
75375;SDS011;63958;52.004;5.908;2022-12-29T15:56:01;4.18;;;1.85;;
75375;SDS011;63958;52.004;5.908;2022-12-29T15:58:39;7.32;;;2.05;;
75375;SDS011;63958;52.004;5.908;2022-12-29T16:01:16;5.40;;;1.80;;